sensor_id;sensor_type;location;lat;lon;timestamp;temperature;humidity
21275;DHT22;36472;52.170;20.884;2023-03-12T00:01:22;22.60;34.00
21275;DHT22;36472;52.170;20.884;2023-03-12T00:03:59;22.60;34.10
21275;DHT22;36472;52.170;20.884;2023-03-12T00:06:29;22.60;34.30
21275;DHT22;36472;52.170;20.884;2023-03-12T00:08:59;22.60;34.30
21275;DHT22;36472;52.170;20.884;2023-03-12T00:11:30;22.60;34.30
21275;DHT22;36472;52.170;20.884;2023-03-12T00:13:59;22.70;34.40
21275;DHT22;36472;52.170;20.884;2023-03-12T00:16:28;22.60;34.40
21275;DHT22;36472;52.170;20.884;2023-03-12T00:18:59;22.60;34.50
21275;DHT22;36472;52.170;20.884;2023-03-12T00:21:28;22.60;34.70
21275;DHT22;36472;52.170;20.884;2023-03-12T00:23:57;22.70;34.70
21275;DHT22;36472;52.170;20.884;2023-03-12T00:26:26;22.60;34.70
21275;DHT22;36472;52.170;20.884;2023-03-12T00:28:55;22.60;34.80
21275;DHT22;36472;52.170;20.884;2023-03-12T00:31:26;22.60;34.90
21275;DHT22;36472;52.170;20.884;2023-03-12T00:34:00;22.60;35.00
21275;DHT22;36472;52.170;20.884;2023-03-12T00:36:31;22.60;35.00
21275;DHT22;36472;52.170;20.884;2023-03-12T00:39:01;22.60;35.00
21275;DHT22;36472;52.170;20.884;2023-03-12T00:41:30;22.60;35.00
21275;DHT22;36472;52.170;20.884;2023-03-12T00:43:59;22.60;35.10
21275;DHT22;36472;52.170;20.884;2023-03-12T00:46:28;22.60;35.10
21275;DHT22;36472;52.170;20.884;2023-03-12T00:48:59;22.60;35.20
21275;DHT22;36472;52.170;20.884;2023-03-12T00:51:27;22.50;35.20
21275;DHT22;36472;52.170;20.884;2023-03-12T00:53:57;22.60;35.10
21275;DHT22;36472;52.170;20.884;2023-03-12T00:56:25;22.60;35.20
21275;DHT22;36472;52.170;20.884;2023-03-12T00:58:55;22.60;35.10
21275;DHT22;36472;52.170;20.884;2023-03-12T01:01:24;22.60;35.10
21275;DHT22;36472;52.170;20.884;2023-03-12T01:03:54;22.50;35.00
21275;DHT22;36472;52.170;20.884;2023-03-12T01:06:25;22.50;35.10
21275;DHT22;36472;52.170;20.884;2023-03-12T01:08:55;22.50;35.00
21275;DHT22;36472;52.170;20.884;2023-03-12T01:11:24;22.40;34.90
21275;DHT22;36472;52.170;20.884;2023-03-12T01:13:53;22.50;35.00
21275;DHT22;36472;52.170;20.884;2023-03-12T01:16:22;22.50;34.90
21275;DHT22;36472;52.170;20.884;2023-03-12T01:18:55;22.50;34.90
21275;DHT22;36472;52.170;20.884;2023-03-12T01:21:27;22.50;35.00
21275;DHT22;36472;52.170;20.884;2023-03-12T01:23:57;22.40;34.90
21275;DHT22;36472;52.170;20.884;2023-03-12T01:26:26;22.40;34.80
21275;DHT22;36472;52.170;20.884;2023-03-12T01:28:55;22.40;34.70
21275;DHT22;36472;52.170;20.884;2023-03-12T01:31:24;22.40;34.90
21275;DHT22;36472;52.170;20.884;2023-03-12T01:33:54;22.40;34.90
21275;DHT22;36472;52.170;20.884;2023-03-12T01:36:24;22.40;34.90
21275;DHT22;36472;52.170;20.884;2023-03-12T01:38:57;22.40;35.00
21275;DHT22;36472;52.170;20.884;2023-03-12T01:41:29;22.50;34.90
21275;DHT22;36472;52.170;20.884;2023-03-12T01:44:00;22.50;34.80
21275;DHT22;36472;52.170;20.884;2023-03-12T01:46:33;22.60;34.70
21275;DHT22;36472;52.170;20.884;2023-03-12T01:49:10;22.60;34.70
21275;DHT22;36472;52.170;20.884;2023-03-12T01:51:45;22.60;34.70
21275;DHT22;36472;52.170;20.884;2023-03-12T01:54:21;22.60;34.80
21275;DHT22;36472;52.170;20.884;2023-03-12T01:56:53;22.60;34.80
21275;DHT22;36472;52.170;20.884;2023-03-12T01:59:29;22.60;34.70
21275;DHT22;36472;52.170;20.884;2023-03-12T02:02:01;22.60;34.80
21275;DHT22;36472;52.170;20.884;2023-03-12T02:04:32;22.60;34.80
21275;DHT22;36472;52.170;20.884;2023-03-12T02:07:05;22.70;34.70
21275;DHT22;36472;52.170;20.884;2023-03-12T02:09:40;22.70;34.80
21275;DHT22;36472;52.170;20.884;2023-03-12T02:12:11;22.70;34.80
21275;DHT22;36472;52.170;20.884;2023-03-12T02:14:41;22.70;34.70
21275;DHT22;36472;52.170;20.884;2023-03-12T02:17:11;22.70;34.60
21275;DHT22;36472;52.170;20.884;2023-03-12T02:19:46;22.70;34.70
21275;DHT22;36472;52.170;20.884;2023-03-12T02:22:24;22.70;34.70
21275;DHT22;36472;52.170;20.884;2023-03-12T02:24:57;22.70;34.60
21275;DHT22;36472;52.170;20.884;2023-03-12T02:27:35;22.70;34.70
21275;DHT22;36472;52.170;20.884;2023-03-12T02:30:07;22.70;34.70
21275;DHT22;36472;52.170;20.884;2023-03-12T02:32:43;22.70;34.60
21275;DHT22;36472;52.170;20.884;2023-03-12T02:35:15;22.60;34.80
21275;DHT22;36472;52.170;20.884;2023-03-12T02:37:49;22.60;34.70
21275;DHT22;36472;52.170;20.884;2023-03-12T02:40:25;22.60;34.70
21275;DHT22;36472;52.170;20.884;2023-03-12T02:42:58;22.70;34.80
21275;DHT22;36472;52.170;20.884;2023-03-12T02:45:30;22.70;34.60
21275;DHT22;36472;52.170;20.884;2023-03-12T02:48:00;22.70;34.60
21275;DHT22;36472;52.170;20.884;2023-03-12T02:50:30;22.70;34.50
21275;DHT22;36472;52.170;20.884;2023-03-12T02:52:59;22.70;34.50
21275;DHT22;36472;52.170;20.884;2023-03-12T02:55:28;22.70;34.60
21275;DHT22;36472;52.170;20.884;2023-03-12T02:57:58;22.60;34.50
21275;DHT22;36472;52.170;20.884;2023-03-12T03:00:30;22.60;34.50
21275;DHT22;36472;52.170;20.884;2023-03-12T03:02:59;22.50;34.50
21275;DHT22;36472;52.170;20.884;2023-03-12T03:05:29;22.50;34.60
21275;DHT22;36472;52.170;20.884;2023-03-12T03:07:58;22.60;34.80
21275;DHT22;36472;52.170;20.884;2023-03-12T03:10:27;22.60;34.70
21275;DHT22;36472;52.170;20.884;2023-03-12T03:12:58;22.60;34.80
21275;DHT22;36472;52.170;20.884;2023-03-12T03:15:28;22.40;34.50
21275;DHT22;36472;52.170;20.884;2023-03-12T03:17:57;22.30;34.60
21275;DHT22;36472;52.170;20.884;2023-03-12T03:20:26;22.30;34.80
21275;DHT22;36472;52.170;20.884;2023-03-12T03:22:55;22.40;34.80
21275;DHT22;36472;52.170;20.884;2023-03-12T03:25:24;22.40;34.80
21275;DHT22;36472;52.170;20.884;2023-03-12T03:27:53;22.30;34.70
21275;DHT22;36472;52.170;20.884;2023-03-12T03:30:24;22.40;35.00
21275;DHT22;36472;52.170;20.884;2023-03-12T03:32:53;22.30;34.90
21275;DHT22;36472;52.170;20.884;2023-03-12T03:35:23;22.30;35.10
21275;DHT22;36472;52.170;20.884;2023-03-12T03:37:52;22.40;35.10
21275;DHT22;36472;52.170;20.884;2023-03-12T03:40:21;22.40;35.10
21275;DHT22;36472;52.170;20.884;2023-03-12T03:42:50;22.40;34.70
21275;DHT22;36472;52.170;20.884;2023-03-12T03:45:19;22.40;34.90
21275;DHT22;36472;52.170;20.884;2023-03-12T03:47:50;22.40;34.90
21275;DHT22;36472;52.170;20.884;2023-03-12T03:50:19;22.50;34.90
21275;DHT22;36472;52.170;20.884;2023-03-12T03:52:49;22.50;34.80
21275;DHT22;36472;52.170;20.884;2023-03-12T03:55:18;22.30;34.80
21275;DHT22;36472;52.170;20.884;2023-03-12T03:57:47;22.50;35.10
21275;DHT22;36472;52.170;20.884;2023-03-12T04:00:17;22.50;34.90
21275;DHT22;36472;52.170;20.884;2023-03-12T04:02:49;22.50;34.90
21275;DHT22;36472;52.170;20.884;2023-03-12T04:05:18;22.60;34.90
21275;DHT22;36472;52.170;20.884;2023-03-12T04:07:51;22.70;35.10
21275;DHT22;36472;52.170;20.884;2023-03-12T04:10:23;22.70;34.90
21275;DHT22;36472;52.170;20.884;2023-03-12T04:12:52;22.60;34.90
21275;DHT22;36472;52.170;20.884;2023-03-12T04:15:22;22.60;35.00
21275;DHT22;36472;52.170;20.884;2023-03-12T04:17:52;22.60;35.10
21275;DHT22;36472;52.170;20.884;2023-03-12T04:20:22;22.60;35.00
21275;DHT22;36472;52.170;20.884;2023-03-12T04:22:51;22.60;35.00
21275;DHT22;36472;52.170;20.884;2023-03-12T04:25:20;22.60;34.90
21275;DHT22;36472;52.170;20.884;2023-03-12T04:27:49;22.70;35.00
21275;DHT22;36472;52.170;20.884;2023-03-12T04:30:18;22.70;34.90
21275;DHT22;36472;52.170;20.884;2023-03-12T04:32:48;22.60;35.00
21275;DHT22;36472;52.170;20.884;2023-03-12T04:35:18;22.70;35.00
21275;DHT22;36472;52.170;20.884;2023-03-12T04:37:48;22.70;35.00
21275;DHT22;36472;52.170;20.884;2023-03-12T04:40:17;22.70;35.00
21275;DHT22;36472;52.170;20.884;2023-03-12T04:42:46;22.80;34.90
21275;DHT22;36472;52.170;20.884;2023-03-12T04:45:16;22.80;34.90
21275;DHT22;36472;52.170;20.884;2023-03-12T04:47:46;22.80;35.00
21275;DHT22;36472;52.170;20.884;2023-03-12T04:50:16;22.90;34.80
21275;DHT22;36472;52.170;20.884;2023-03-12T04:52:46;22.90;34.90
21275;DHT22;36472;52.170;20.884;2023-03-12T04:55:15;22.90;35.00
21275;DHT22;36472;52.170;20.884;2023-03-12T04:57:44;23.00;34.80
21275;DHT22;36472;52.170;20.884;2023-03-12T05:00:14;23.00;34.80
21275;DHT22;36472;52.170;20.884;2023-03-12T05:02:45;23.00;34.70
21275;DHT22;36472;52.170;20.884;2023-03-12T05:05:14;23.00;34.80
21275;DHT22;36472;52.170;20.884;2023-03-12T05:07:44;23.00;34.90
21275;DHT22;36472;52.170;20.884;2023-03-12T05:10:14;23.00;35.60
21275;DHT22;36472;52.170;20.884;2023-03-12T05:12:43;22.90;34.90
21275;DHT22;36472;52.170;20.884;2023-03-12T05:15:12;23.00;35.00
21275;DHT22;36472;52.170;20.884;2023-03-12T05:17:44;22.90;35.10
21275;DHT22;36472;52.170;20.884;2023-03-12T05:20:13;22.90;35.10
21275;DHT22;36472;52.170;20.884;2023-03-12T05:22:47;22.90;35.10
21275;DHT22;36472;52.170;20.884;2023-03-12T05:25:16;23.00;35.10
21275;DHT22;36472;52.170;20.884;2023-03-12T05:27:45;23.00;35.10
21275;DHT22;36472;52.170;20.884;2023-03-12T05:30:15;23.10;35.10
21275;DHT22;36472;52.170;20.884;2023-03-12T05:32:44;23.00;35.00
21275;DHT22;36472;52.170;20.884;2023-03-12T05:35:14;23.10;35.10
21275;DHT22;36472;52.170;20.884;2023-03-12T05:37:45;23.10;35.10
21275;DHT22;36472;52.170;20.884;2023-03-12T05:40:15;23.00;34.90
21275;DHT22;36472;52.170;20.884;2023-03-12T05:42:44;23.00;34.90
21275;DHT22;36472;52.170;20.884;2023-03-12T05:45:13;23.00;35.00
21275;DHT22;36472;52.170;20.884;2023-03-12T05:47:46;23.00;35.10
21275;DHT22;36472;52.170;20.884;2023-03-12T05:50:16;23.10;35.00
21275;DHT22;36472;52.170;20.884;2023-03-12T05:52:47;23.00;34.90
21275;DHT22;36472;52.170;20.884;2023-03-12T05:55:16;23.00;34.90
21275;DHT22;36472;52.170;20.884;2023-03-12T05:57:46;23.00;35.10
21275;DHT22;36472;52.170;20.884;2023-03-12T06:00:16;22.90;35.00
21275;DHT22;36472;52.170;20.884;2023-03-12T06:02:53;23.00;35.10
21275;DHT22;36472;52.170;20.884;2023-03-12T06:05:22;23.00;34.90
21275;DHT22;36472;52.170;20.884;2023-03-12T06:07:52;23.10;35.00
21275;DHT22;36472;52.170;20.884;2023-03-12T06:10:22;23.10;35.00
21275;DHT22;36472;52.170;20.884;2023-03-12T06:12:51;23.00;34.80
21275;DHT22;36472;52.170;20.884;2023-03-12T06:15:20;23.00;35.00
21275;DHT22;36472;52.170;20.884;2023-03-12T06:17:49;22.90;35.00
21275;DHT22;36472;52.170;20.884;2023-03-12T06:20:19;23.00;35.10
21275;DHT22;36472;52.170;20.884;2023-03-12T06:22:48;23.00;35.00
21275;DHT22;36472;52.170;20.884;2023-03-12T06:25:18;23.00;34.90
21275;DHT22;36472;52.170;20.884;2023-03-12T06:27:47;22.90;34.80
21275;DHT22;36472;52.170;20.884;2023-03-12T06:30:16;23.00;34.90
21275;DHT22;36472;52.170;20.884;2023-03-12T06:32:45;23.10;34.90
21275;DHT22;36472;52.170;20.884;2023-03-12T06:35:15;23.10;34.80
21275;DHT22;36472;52.170;20.884;2023-03-12T06:37:44;23.10;34.90
21275;DHT22;36472;52.170;20.884;2023-03-12T06:40:13;23.10;34.70
21275;DHT22;36472;52.170;20.884;2023-03-12T06:42:43;23.00;35.00
21275;DHT22;36472;52.170;20.884;2023-03-12T06:45:12;23.10;35.10
21275;DHT22;36472;52.170;20.884;2023-03-12T06:47:41;23.10;35.10
21275;DHT22;36472;52.170;20.884;2023-03-12T06:50:10;23.10;35.20
21275;DHT22;36472;52.170;20.884;2023-03-12T06:52:39;23.10;35.20
21275;DHT22;36472;52.170;20.884;2023-03-12T06:55:08;23.10;35.20
21275;DHT22;36472;52.170;20.884;2023-03-12T06:57:37;23.10;35.10
21275;DHT22;36472;52.170;20.884;2023-03-12T07:00:09;23.00;35.30
21275;DHT22;36472;52.170;20.884;2023-03-12T07:02:39;22.90;35.10
21275;DHT22;36472;52.170;20.884;2023-03-12T07:05:09;23.10;35.50
21275;DHT22;36472;52.170;20.884;2023-03-12T07:07:37;23.10;35.70
21275;DHT22;36472;52.170;20.884;2023-03-12T07:10:08;23.10;35.50
21275;DHT22;36472;52.170;20.884;2023-03-12T07:12:38;23.00;35.70
21275;DHT22;36472;52.170;20.884;2023-03-12T07:15:09;23.00;35.70
21275;DHT22;36472;52.170;20.884;2023-03-12T07:17:38;23.10;35.90
21275;DHT22;36472;52.170;20.884;2023-03-12T07:20:09;23.20;35.80
21275;DHT22;36472;52.170;20.884;2023-03-12T07:22:39;23.20;35.70
21275;DHT22;36472;52.170;20.884;2023-03-12T07:25:09;23.20;35.50
21275;DHT22;36472;52.170;20.884;2023-03-12T07:27:38;23.30;35.40
21275;DHT22;36472;52.170;20.884;2023-03-12T07:30:10;23.30;35.30
21275;DHT22;36472;52.170;20.884;2023-03-12T07:32:40;23.20;35.20
21275;DHT22;36472;52.170;20.884;2023-03-12T07:35:09;23.20;34.80
21275;DHT22;36472;52.170;20.884;2023-03-12T07:37:38;23.20;34.70
21275;DHT22;36472;52.170;20.884;2023-03-12T07:40:08;23.20;34.50
21275;DHT22;36472;52.170;20.884;2023-03-12T07:42:38;23.30;34.50
21275;DHT22;36472;52.170;20.884;2023-03-12T07:45:08;23.40;34.30
21275;DHT22;36472;52.170;20.884;2023-03-12T07:47:38;23.30;33.80
21275;DHT22;36472;52.170;20.884;2023-03-12T07:50:09;23.40;33.80
21275;DHT22;36472;52.170;20.884;2023-03-12T07:52:38;23.40;33.60
21275;DHT22;36472;52.170;20.884;2023-03-12T07:55:09;23.40;33.00
21275;DHT22;36472;52.170;20.884;2023-03-12T07:57:38;23.40;33.10
21275;DHT22;36472;52.170;20.884;2023-03-12T08:00:10;23.40;33.50
21275;DHT22;36472;52.170;20.884;2023-03-12T08:02:40;23.40;33.40
21275;DHT22;36472;52.170;20.884;2023-03-12T08:05:09;23.50;33.20
21275;DHT22;36472;52.170;20.884;2023-03-12T08:07:38;23.60;33.10
21275;DHT22;36472;52.170;20.884;2023-03-12T08:10:09;23.60;32.80
21275;DHT22;36472;52.170;20.884;2023-03-12T08:12:39;23.60;32.80
21275;DHT22;36472;52.170;20.884;2023-03-12T08:15:10;23.50;32.70
21275;DHT22;36472;52.170;20.884;2023-03-12T08:17:40;23.70;32.60
21275;DHT22;36472;52.170;20.884;2023-03-12T08:20:10;23.70;32.60
21275;DHT22;36472;52.170;20.884;2023-03-12T08:22:40;23.70;32.30
21275;DHT22;36472;52.170;20.884;2023-03-12T08:25:09;23.70;32.30
21275;DHT22;36472;52.170;20.884;2023-03-12T08:27:39;23.70;32.20
21275;DHT22;36472;52.170;20.884;2023-03-12T08:30:10;23.70;32.60
21275;DHT22;36472;52.170;20.884;2023-03-12T08:32:40;23.70;32.70
21275;DHT22;36472;52.170;20.884;2023-03-12T08:35:09;23.70;32.70
21275;DHT22;36472;52.170;20.884;2023-03-12T08:37:38;23.60;32.50
21275;DHT22;36472;52.170;20.884;2023-03-12T08:40:09;23.60;32.90
21275;DHT22;36472;52.170;20.884;2023-03-12T08:42:40;23.60;32.90
21275;DHT22;36472;52.170;20.884;2023-03-12T08:45:12;23.60;32.60
21275;DHT22;36472;52.170;20.884;2023-03-12T08:47:42;23.70;32.60
21275;DHT22;36472;52.170;20.884;2023-03-12T08:50:12;23.70;32.40
21275;DHT22;36472;52.170;20.884;2023-03-12T08:52:43;23.80;32.10
21275;DHT22;36472;52.170;20.884;2023-03-12T08:55:12;23.80;32.20
21275;DHT22;36472;52.170;20.884;2023-03-12T08:57:41;23.80;32.50
21275;DHT22;36472;52.170;20.884;2023-03-12T09:00:13;23.70;31.80
21275;DHT22;36472;52.170;20.884;2023-03-12T09:02:45;23.70;31.80
21275;DHT22;36472;52.170;20.884;2023-03-12T09:05:16;23.80;30.90
21275;DHT22;36472;52.170;20.884;2023-03-12T09:07:45;23.80;30.00
21275;DHT22;36472;52.170;20.884;2023-03-12T09:10:16;23.80;29.90
21275;DHT22;36472;52.170;20.884;2023-03-12T09:12:45;23.60;29.90
21275;DHT22;36472;52.170;20.884;2023-03-12T09:15:16;23.80;29.90
21275;DHT22;36472;52.170;20.884;2023-03-12T09:17:45;23.70;29.60
21275;DHT22;36472;52.170;20.884;2023-03-12T09:20:15;23.80;29.90
21275;DHT22;36472;52.170;20.884;2023-03-12T09:22:44;23.80;29.60
21275;DHT22;36472;52.170;20.884;2023-03-12T09:25:13;23.90;29.70
21275;DHT22;36472;52.170;20.884;2023-03-12T09:27:44;23.80;29.70
21275;DHT22;36472;52.170;20.884;2023-03-12T09:30:18;23.80;29.10
21275;DHT22;36472;52.170;20.884;2023-03-12T09:32:48;23.80;29.30
21275;DHT22;36472;52.170;20.884;2023-03-12T09:35:17;23.70;29.10
21275;DHT22;36472;52.170;20.884;2023-03-12T09:37:47;23.70;29.50
21275;DHT22;36472;52.170;20.884;2023-03-12T09:40:20;23.80;29.80
21275;DHT22;36472;52.170;20.884;2023-03-12T09:42:53;23.80;29.20
21275;DHT22;36472;52.170;20.884;2023-03-12T09:45:30;24.00;30.30
21275;DHT22;36472;52.170;20.884;2023-03-12T09:48:05;24.20;30.40
21275;DHT22;36472;52.170;20.884;2023-03-12T09:50:41;24.30;30.70
21275;DHT22;36472;52.170;20.884;2023-03-12T09:53:19;24.40;30.80
21275;DHT22;36472;52.170;20.884;2023-03-12T09:55:57;24.50;30.20
21275;DHT22;36472;52.170;20.884;2023-03-12T09:58:32;24.60;29.40
21275;DHT22;36472;52.170;20.884;2023-03-12T10:01:18;24.70;29.60
21275;DHT22;36472;52.170;20.884;2023-03-12T10:07:14;24.80;28.80
21275;DHT22;36472;52.170;20.884;2023-03-12T10:10:02;24.80;29.10
21275;DHT22;36472;52.170;20.884;2023-03-12T10:12:50;24.60;28.20
21275;DHT22;36472;52.170;20.884;2023-03-12T10:15:37;24.40;28.90
21275;DHT22;36472;52.170;20.884;2023-03-12T10:18:22;24.50;29.50
21275;DHT22;36472;52.170;20.884;2023-03-12T10:21:11;24.40;29.50
21275;DHT22;36472;52.170;20.884;2023-03-12T10:23:59;24.20;29.30
21275;DHT22;36472;52.170;20.884;2023-03-12T10:26:46;24.20;29.80
21275;DHT22;36472;52.170;20.884;2023-03-12T10:29:20;24.20;29.90
21275;DHT22;36472;52.170;20.884;2023-03-12T10:31:56;24.00;29.10
21275;DHT22;36472;52.170;20.884;2023-03-12T10:34:33;24.20;29.60
21275;DHT22;36472;52.170;20.884;2023-03-12T10:37:14;24.40;29.20
21275;DHT22;36472;52.170;20.884;2023-03-12T10:39:49;24.70;29.30
21275;DHT22;36472;52.170;20.884;2023-03-12T10:42:20;24.90;28.90
21275;DHT22;36472;52.170;20.884;2023-03-12T10:44:52;25.00;28.40
21275;DHT22;36472;52.170;20.884;2023-03-12T10:47:32;25.00;28.10
21275;DHT22;36472;52.170;20.884;2023-03-12T10:50:14;24.90;27.90
21275;DHT22;36472;52.170;20.884;2023-03-12T10:52:45;24.90;28.10
21275;DHT22;36472;52.170;20.884;2023-03-12T10:55:21;24.80;28.40
21275;DHT22;36472;52.170;20.884;2023-03-12T10:57:52;24.70;28.30
21275;DHT22;36472;52.170;20.884;2023-03-12T11:00:23;24.70;28.70
21275;DHT22;36472;52.170;20.884;2023-03-12T11:02:59;24.70;28.80
21275;DHT22;36472;52.170;20.884;2023-03-12T11:05:34;25.00;29.30
21275;DHT22;36472;52.170;20.884;2023-03-12T11:08:19;25.30;28.40
21275;DHT22;36472;52.170;20.884;2023-03-12T11:10:50;25.50;27.90
21275;DHT22;36472;52.170;20.884;2023-03-12T11:13:27;25.60;27.70
21275;DHT22;36472;52.170;20.884;2023-03-12T11:16:00;25.70;27.50
21275;DHT22;36472;52.170;20.884;2023-03-12T11:18:32;25.70;27.00
21275;DHT22;36472;52.170;20.884;2023-03-12T11:21:15;25.70;27.30
21275;DHT22;36472;52.170;20.884;2023-03-12T11:24:04;25.60;27.30
21275;DHT22;36472;52.170;20.884;2023-03-12T11:26:43;25.80;27.30
21275;DHT22;36472;52.170;20.884;2023-03-12T11:29:23;25.80;27.60
21275;DHT22;36472;52.170;20.884;2023-03-12T11:32:11;25.80;27.20
21275;DHT22;36472;52.170;20.884;2023-03-12T11:34:45;25.60;27.10
21275;DHT22;36472;52.170;20.884;2023-03-12T11:37:24;25.50;27.10
21275;DHT22;36472;52.170;20.884;2023-03-12T11:40:14;25.50;27.10
21275;DHT22;36472;52.170;20.884;2023-03-12T11:43:02;25.50;27.10
21275;DHT22;36472;52.170;20.884;2023-03-12T11:46:13;25.50;27.00
21275;DHT22;36472;52.170;20.884;2023-03-12T11:48:58;25.30;26.90
21275;DHT22;36472;52.170;20.884;2023-03-12T11:51:52;25.20;27.10
21275;DHT22;36472;52.170;20.884;2023-03-12T11:54:44;25.10;27.20
21275;DHT22;36472;52.170;20.884;2023-03-12T11:58:00;25.20;27.40
21275;DHT22;36472;52.170;20.884;2023-03-12T12:00:42;25.20;27.10
21275;DHT22;36472;52.170;20.884;2023-03-12T12:03:58;25.20;27.50
21275;DHT22;36472;52.170;20.884;2023-03-12T12:06:45;25.20;27.30
21275;DHT22;36472;52.170;20.884;2023-03-12T12:09:33;25.00;27.30
21275;DHT22;36472;52.170;20.884;2023-03-12T12:12:42;24.90;27.00
21275;DHT22;36472;52.170;20.884;2023-03-12T12:15:27;24.90;27.10
21275;DHT22;36472;52.170;20.884;2023-03-12T12:18:19;25.00;27.10
21275;DHT22;36472;52.170;20.884;2023-03-12T12:21:01;25.20;27.30
21275;DHT22;36472;52.170;20.884;2023-03-12T12:23:47;25.20;27.00
21275;DHT22;36472;52.170;20.884;2023-03-12T12:26:26;25.20;26.90
21275;DHT22;36472;52.170;20.884;2023-03-12T12:29:22;25.20;26.80
21275;DHT22;36472;52.170;20.884;2023-03-12T12:31:58;24.90;26.70
21275;DHT22;36472;52.170;20.884;2023-03-12T12:34:53;24.70;26.80
21275;DHT22;36472;52.170;20.884;2023-03-12T12:37:49;24.80;26.90
21275;DHT22;36472;52.170;20.884;2023-03-12T12:40:26;24.80;27.10
21275;DHT22;36472;52.170;20.884;2023-03-12T12:43:08;24.70;26.80
21275;DHT22;36472;52.170;20.884;2023-03-12T12:45:47;24.80;27.00
21275;DHT22;36472;52.170;20.884;2023-03-12T12:48:21;24.90;27.30
21275;DHT22;36472;52.170;20.884;2023-03-12T12:50:54;24.80;26.80
21275;DHT22;36472;52.170;20.884;2023-03-12T12:53:31;24.80;26.70
21275;DHT22;36472;52.170;20.884;2023-03-12T12:56:14;24.80;27.40
21275;DHT22;36472;52.170;20.884;2023-03-12T12:58:58;24.80;27.30
21275;DHT22;36472;52.170;20.884;2023-03-12T13:01:53;24.90;27.20
21275;DHT22;36472;52.170;20.884;2023-03-12T13:04:25;25.00;27.30
21275;DHT22;36472;52.170;20.884;2023-03-12T13:07:01;25.00;26.90
21275;DHT22;36472;52.170;20.884;2023-03-12T13:09:55;24.90;26.70
21275;DHT22;36472;52.170;20.884;2023-03-12T13:12:29;24.80;27.10
21275;DHT22;36472;52.170;20.884;2023-03-12T13:15:33;24.90;27.30
21275;DHT22;36472;52.170;20.884;2023-03-12T13:18:16;24.90;26.70
21275;DHT22;36472;52.170;20.884;2023-03-12T13:21:12;24.90;26.70
21275;DHT22;36472;52.170;20.884;2023-03-12T13:23:54;24.90;27.00
21275;DHT22;36472;52.170;20.884;2023-03-12T13:26:45;24.90;27.30
21275;DHT22;36472;52.170;20.884;2023-03-12T13:29:34;25.10;27.50
21275;DHT22;36472;52.170;20.884;2023-03-12T13:32:36;25.10;27.50
21275;DHT22;36472;52.170;20.884;2023-03-12T13:35:30;25.10;27.30
21275;DHT22;36472;52.170;20.884;2023-03-12T13:38:05;25.20;27.30
21275;DHT22;36472;52.170;20.884;2023-03-12T13:41:00;25.20;27.30
21275;DHT22;36472;52.170;20.884;2023-03-12T13:43:50;25.20;27.30
21275;DHT22;36472;52.170;20.884;2023-03-12T13:46:28;25.20;27.30
21275;DHT22;36472;52.170;20.884;2023-03-12T13:49:14;25.20;27.20
21275;DHT22;36472;52.170;20.884;2023-03-12T13:51:56;25.20;27.20
21275;DHT22;36472;52.170;20.884;2023-03-12T13:54:33;25.10;27.00
21275;DHT22;36472;52.170;20.884;2023-03-12T13:57:19;24.90;27.00
21275;DHT22;36472;52.170;20.884;2023-03-12T13:59:55;25.00;27.40
21275;DHT22;36472;52.170;20.884;2023-03-12T14:02:29;25.00;27.70
21275;DHT22;36472;52.170;20.884;2023-03-12T14:05:04;25.10;27.60
21275;DHT22;36472;52.170;20.884;2023-03-12T14:08:08;25.20;27.50
21275;DHT22;36472;52.170;20.884;2023-03-12T14:10:55;25.30;27.60
21275;DHT22;36472;52.170;20.884;2023-03-12T14:13:56;25.40;27.50
21275;DHT22;36472;52.170;20.884;2023-03-12T14:16:39;25.50;27.30
21275;DHT22;36472;52.170;20.884;2023-03-12T14:19:12;25.40;26.50
21275;DHT22;36472;52.170;20.884;2023-03-12T14:21:48;25.40;27.10
21275;DHT22;36472;52.170;20.884;2023-03-12T14:24:23;25.40;27.00
21275;DHT22;36472;52.170;20.884;2023-03-12T14:26:56;25.40;27.00
21275;DHT22;36472;52.170;20.884;2023-03-12T14:29:28;25.40;27.10
21275;DHT22;36472;52.170;20.884;2023-03-12T14:32:05;25.30;27.00
21275;DHT22;36472;52.170;20.884;2023-03-12T14:34:44;25.40;27.00
21275;DHT22;36472;52.170;20.884;2023-03-12T14:37:21;25.40;27.00
21275;DHT22;36472;52.170;20.884;2023-03-12T14:39:54;25.20;26.90
21275;DHT22;36472;52.170;20.884;2023-03-12T14:42:30;25.10;26.80
21275;DHT22;36472;52.170;20.884;2023-03-12T14:45:08;25.20;27.30
21275;DHT22;36472;52.170;20.884;2023-03-12T14:47:39;25.20;27.10
21275;DHT22;36472;52.170;20.884;2023-03-12T14:50:16;25.20;27.50
21275;DHT22;36472;52.170;20.884;2023-03-12T14:52:47;25.20;27.50
21275;DHT22;36472;52.170;20.884;2023-03-12T14:55:20;25.20;27.50
21275;DHT22;36472;52.170;20.884;2023-03-12T14:58:02;25.20;27.50
21275;DHT22;36472;52.170;20.884;2023-03-12T15:00:33;25.20;27.60
21275;DHT22;36472;52.170;20.884;2023-03-12T15:03:03;25.30;27.60
21275;DHT22;36472;52.170;20.884;2023-03-12T15:05:44;25.30;27.50
21275;DHT22;36472;52.170;20.884;2023-03-12T15:08:16;25.20;27.60
21275;DHT22;36472;52.170;20.884;2023-03-12T15:10:48;25.20;27.60
21275;DHT22;36472;52.170;20.884;2023-03-12T15:13:19;25.20;27.90
21275;DHT22;36472;52.170;20.884;2023-03-12T15:15:52;25.30;27.90
21275;DHT22;36472;52.170;20.884;2023-03-12T15:18:25;25.30;27.70
21275;DHT22;36472;52.170;20.884;2023-03-12T15:20:58;25.30;27.80
21275;DHT22;36472;52.170;20.884;2023-03-12T15:23:33;25.40;27.70
21275;DHT22;36472;52.170;20.884;2023-03-12T15:26:13;25.30;27.40
21275;DHT22;36472;52.170;20.884;2023-03-12T15:28:55;25.30;27.80
21275;DHT22;36472;52.170;20.884;2023-03-12T15:31:25;25.40;27.70
21275;DHT22;36472;52.170;20.884;2023-03-12T15:34:00;25.40;27.70
21275;DHT22;36472;52.170;20.884;2023-03-12T15:36:31;25.50;27.80
21275;DHT22;36472;52.170;20.884;2023-03-12T15:39:12;25.50;27.70
21275;DHT22;36472;52.170;20.884;2023-03-12T15:41:53;25.50;27.80
21275;DHT22;36472;52.170;20.884;2023-03-12T15:44:30;25.50;27.70
21275;DHT22;36472;52.170;20.884;2023-03-12T15:47:12;25.50;27.90
21275;DHT22;36472;52.170;20.884;2023-03-12T15:49:43;25.50;27.80
21275;DHT22;36472;52.170;20.884;2023-03-12T15:52:26;25.50;27.90
21275;DHT22;36472;52.170;20.884;2023-03-12T15:55:01;25.50;28.00
21275;DHT22;36472;52.170;20.884;2023-03-12T15:57:36;25.50;28.10
21275;DHT22;36472;52.170;20.884;2023-03-12T16:00:19;25.60;28.00
21275;DHT22;36472;52.170;20.884;2023-03-12T16:02:53;25.60;28.00